Time;durP1;ratioP1;P1;durP2;ratioP2;P2;SDS_P1;SDS_P2;PMS_P1;PMS_P2;Temp;Humidity;BMP_temperature;BMP_pressure;BME280_temperature;BME280_humidity;BME280_pressure;Samples;Min_cycle;Max_cycle;Signal;HPM_P1;HPM_P2
2023/11/27 00:00:16;;;;;;;3.03;1.17;;;8.30;99.90;;;;;;4994123;28;20178;-80
2023/11/27 00:02:42;;;;;;;2.97;1.27;;;8.30;99.90;;;;;;4977181;28;20254;-79
2023/11/27 00:05:08;;;;;;;4.40;1.40;;;8.30;99.90;;;;;;4993546;28;20246;-80
2023/11/27 00:07:33;;;;;;;2.97;1.20;;;8.30;99.90;;;;;;5010348;28;20206;-79
2023/11/27 00:09:59;;;;;;;7.10;1.20;;;8.30;99.90;;;;;;4993896;28;20182;-79
2023/11/27 00:12:25;;;;;;;2.27;1.30;;;8.30;99.90;;;;;;4993358;28;20198;-80
2023/11/27 00:14:51;;;;;;;1.70;1.10;;;8.30;99.90;;;;;;4993722;28;20193;-79
2023/11/27 00:17:17;;;;;;;2.90;1.23;;;8.30;99.90;;;;;;4994159;28;20193;-79
2023/11/27 00:19:43;;;;;;;2.65;1.52;;;8.30;99.90;;;;;;5011162;28;20596;-79
2023/11/27 00:22:08;;;;;;;4.80;1.60;;;8.30;99.90;;;;;;4995744;28;20198;-79
2023/11/27 00:24:35;;;;;;;2.40;1.40;;;8.30;99.90;;;;;;4994022;28;20175;-79
2023/11/27 00:27:00;;;;;;;2.95;1.45;;;8.30;99.90;;;;;;5009682;28;20640;-79
2023/11/27 00:29:28;;;;;;;2.20;1.30;;;8.30;99.90;;;;;;5011314;28;20174;-79
2023/11/27 00:31:54;;;;;;;3.20;1.48;;;8.30;99.90;;;;;;4993007;28;20235;-79
2023/11/27 00:34:20;;;;;;;4.50;1.90;;;8.30;99.90;;;;;;4993406;28;20544;-79
2023/11/27 00:36:45;;;;;;;4.17;1.93;;;8.30;99.90;;;;;;4993592;28;20601;-79
2023/11/27 00:39:11;;;;;;;3.57;1.87;;;8.30;99.90;;;;;;4961016;28;20589;-79
2023/11/27 00:41:37;;;;;;;2.77;1.57;;;8.30;99.90;;;;;;5018879;28;20692;-79
2023/11/27 00:44:04;;;;;;;2.65;1.75;;;8.30;99.90;;;;;;4985351;28;20946;-79
2023/11/27 00:46:29;;;;;;;3.25;1.90;;;8.30;99.90;;;;;;5009894;28;20200;-79
2023/11/27 00:48:55;;;;;;;2.97;1.83;;;8.30;99.90;;;;;;4993377;28;20181;-79
2023/11/27 00:51:22;;;;;;;3.13;1.80;;;8.30;99.90;;;;;;4993067;28;20194;-79
2023/11/27 00:53:48;;;;;;;2.53;1.58;;;8.30;99.90;;;;;;5009824;28;20948;-79
2023/11/27 00:56:14;;;;;;;2.30;1.87;;;8.30;99.90;;;;;;4977360;28;20178;-80
2023/11/27 00:58:39;;;;;;;2.30;1.40;;;8.30;99.90;;;;;;5012008;28;20170;-79
2023/11/27 01:01:05;;;;;;;4.73;1.90;;;8.30;99.90;;;;;;4994958;28;20277;-79
2023/11/27 01:03:32;;;;;;;2.38;1.60;;;8.30;99.90;;;;;;4994519;28;20166;-79
2023/11/27 01:05:58;;;;;;;8.27;1.90;;;8.30;99.90;;;;;;5014637;28;20626;-78
2023/11/27 01:08:24;;;;;;;2.70;1.63;;;8.30;99.90;;;;;;5014549;28;20251;-78
2023/11/27 01:10:51;;;;;;;3.22;1.60;;;8.20;99.90;;;;;;5014388;28;20170;-79
2023/11/27 01:13:17;;;;;;;2.90;1.50;;;8.20;99.90;;;;;;4997583;28;20207;-79
2023/11/27 01:15:43;;;;;;;2.53;2.30;;;8.20;99.90;;;;;;5013836;28;20174;-78
2023/11/27 01:18:08;;;;;;;5.63;2.20;;;8.20;99.90;;;;;;5013505;28;20589;-78
2023/11/27 01:20:34;;;;;;;3.10;1.97;;;8.20;99.90;;;;;;4996839;28;20640;-78
2023/11/27 01:23:00;;;;;;;3.27;1.93;;;8.20;99.90;;;;;;4996697;28;20754;-78
2023/11/27 01:25:26;;;;;;;3.10;2.22;;;8.20;99.90;;;;;;4980630;28;21021;-79
2023/11/27 01:27:52;;;;;;;4.60;2.23;;;8.20;99.90;;;;;;4996709;28;20290;-79
2023/11/27 01:30:19;;;;;;;3.10;2.23;;;8.20;99.90;;;;;;4996994;28;20890;-79
2023/11/27 01:32:46;;;;;;;2.88;2.25;;;8.30;99.90;;;;;;4995974;28;20210;-79
2023/11/27 01:35:11;;;;;;;3.58;2.05;;;8.30;99.90;;;;;;4980367;28;20517;-79
2023/11/27 01:37:37;;;;;;;3.23;2.20;;;8.20;99.90;;;;;;5015781;28;20232;-79
2023/11/27 01:40:03;;;;;;;4.70;2.27;;;8.20;99.90;;;;;;4996695;28;20240;-79
2023/11/27 01:42:29;;;;;;;4.55;2.70;;;8.20;99.90;;;;;;5013564;28;20194;-79
2023/11/27 01:44:55;;;;;;;3.60;2.00;;;8.20;99.90;;;;;;4996311;28;20174;-79
2023/11/27 01:47:21;;;;;;;3.93;2.40;;;8.10;99.90;;;;;;4979728;28;20216;-79
2023/11/27 01:49:47;;;;;;;3.83;2.63;;;8.10;99.90;;;;;;5013966;28;20240;-79
2023/11/27 01:52:13;;;;;;;3.05;2.58;;;8.10;99.90;;;;;;5021643;28;20619;-79
2023/11/27 01:54:40;;;;;;;4.25;1.80;;;8.10;99.90;;;;;;4980433;28;20726;-79
2023/11/27 01:57:15;;;;;;;2.85;1.73;;;8.10;99.90;;;;;;5005691;28;20680;-79
2023/11/27 01:59:45;;;;;;;4.47;2.70;;;8.20;99.90;;;;;;4979856;28;20182;-79
2023/11/27 02:02:13;;;;;;;5.15;1.90;;;8.10;99.90;;;;;;4995677;28;20201;-79
2023/11/27 02:04:39;;;;;;;2.95;1.95;;;8.10;99.90;;;;;;4979683;28;20178;-79
2023/11/27 02:07:05;;;;;;;3.90;2.30;;;8.10;99.90;;;;;;4995763;28;20220;-80
2023/11/27 02:09:31;;;;;;;4.00;2.05;;;8.10;99.90;;;;;;4966978;28;20186;-80
2023/11/27 02:11:57;;;;;;;4.57;2.57;;;8.00;99.90;;;;;;5014643;28;20606;-81
2023/11/27 02:14:22;;;;;;;3.20;2.70;;;8.10;99.90;;;;;;4990149;28;20203;-80
2023/11/27 02:16:49;;;;;;;3.27;2.70;;;8.00;99.90;;;;;;4987937;28;20592;-80
2023/11/27 02:19:15;;;;;;;5.00;2.67;;;8.10;99.90;;;;;;5007270;28;20189;-80
2023/11/27 02:21:43;;;;;;;5.88;3.50;;;8.10;99.90;;;;;;5022586;28;20198;-80
2023/11/27 02:24:09;;;;;;;3.67;2.20;;;8.10;99.90;;;;;;4981503;28;20750;-80
2023/11/27 02:26:35;;;;;;;2.63;1.60;;;8.10;99.90;;;;;;4974613;28;20237;-80
2023/11/27 02:29:01;;;;;;;3.22;2.10;;;8.10;99.90;;;;;;4984760;28;20597;-80
2023/11/27 02:31:27;;;;;;;2.80;1.70;;;8.00;99.90;;;;;;4997397;28;20300;-80
2023/11/27 02:33:53;;;;;;;3.80;2.33;;;8.00;99.90;;;;;;4981808;28;20259;-79
2023/11/27 02:36:24;;;;;;;4.20;2.00;;;8.00;99.90;;;;;;4997064;28;20589;-79
2023/11/27 02:38:50;;;;;;;4.05;1.80;;;8.00;99.90;;;;;;4989409;28;20221;-79
2023/11/27 02:41:16;;;;;;;3.83;2.40;;;8.00;99.90;;;;;;4998926;28;20209;-80
2023/11/27 02:43:42;;;;;;;3.85;1.95;;;8.00;99.90;;;;;;5010635;28;20600;-80
2023/11/27 02:46:08;;;;;;;3.88;2.20;;;8.00;99.90;;;;;;4986642;28;20243;-80
2023/11/27 02:48:34;;;;;;;4.33;1.93;;;8.00;99.90;;;;;;4996105;28;20202;-80
2023/11/27 02:50:59;;;;;;;4.77;2.33;;;8.00;99.90;;;;;;5004657;28;20200;-80
2023/11/27 02:53:25;;;;;;;3.27;2.20;;;8.00;99.90;;;;;;4998910;28;20174;-81
2023/11/27 02:55:52;;;;;;;4.67;1.90;;;8.00;99.90;;;;;;4983863;28;20657;-80
2023/11/27 02:58:17;;;;;;;3.47;2.33;;;8.00;99.90;;;;;;4989007;28;20189;-80
2023/11/27 03:00:43;;;;;;;4.30;2.67;;;8.00;99.90;;;;;;5001141;28;20190;-79
2023/11/27 03:03:09;;;;;;;2.60;2.13;;;7.90;99.90;;;;;;4997042;28;20198;-78
2023/11/27 03:05:35;;;;;;;6.57;2.33;;;7.90;99.90;;;;;;4978623;28;21263;-79
2023/11/27 03:08:02;;;;;;;5.00;2.38;;;7.90;99.90;;;;;;4997868;28;20632;-79
2023/11/27 03:10:28;;;;;;;4.53;2.45;;;7.90;99.90;;;;;;4999021;28;20175;-79
2023/11/27 03:12:54;;;;;;;4.23;3.37;;;7.80;99.90;;;;;;4978255;28;20204;-79
2023/11/27 03:15:20;;;;;;;4.70;2.57;;;7.80;99.90;;;;;;4986578;28;20585;-78
2023/11/27 03:17:46;;;;;;;3.88;2.25;;;7.80;99.90;;;;;;5010956;28;20226;-79
2023/11/27 03:20:12;;;;;;;6.03;3.00;;;7.80;99.90;;;;;;4986661;28;20206;-78
2023/11/27 03:22:39;;;;;;;4.43;2.83;;;7.70;99.90;;;;;;4961940;28;20259;-78
2023/11/27 03:25:05;;;;;;;7.65;3.35;;;7.70;99.90;;;;;;4994508;28;20186;-79
2023/11/27 03:27:32;;;;;;;3.10;2.20;;;7.60;99.90;;;;;;5017960;28;20259;-79
2023/11/27 03:29:57;;;;;;;5.07;2.35;;;7.60;99.90;;;;;;4998990;28;20182;-79
2023/11/27 03:32:23;;;;;;;3.80;2.37;;;7.60;99.90;;;;;;4993886;28;20209;-79
2023/11/27 03:34:49;;;;;;;5.30;2.70;;;7.60;99.90;;;;;;4994733;28;20173;-79
2023/11/27 03:37:14;;;;;;;4.97;2.50;;;7.60;99.90;;;;;;4993077;28;20875;-78
2023/11/27 03:39:40;;;;;;;4.50;3.57;;;7.60;99.90;;;;;;4987703;28;20210;-79
2023/11/27 03:42:06;;;;;;;3.80;2.63;;;7.60;99.90;;;;;;4993526;28;20202;-79
2023/11/27 03:44:32;;;;;;;4.30;3.00;;;7.60;99.90;;;;;;5015888;28;20648;-79
2023/11/27 03:46:58;;;;;;;5.20;2.53;;;7.50;99.90;;;;;;4998828;28;20240;-79
2023/11/27 03:49:23;;;;;;;4.10;2.33;;;7.60;99.90;;;;;;4977949;28;20596;-79
2023/11/27 03:51:49;;;;;;;5.90;2.90;;;7.50;99.90;;;;;;4983764;28;20558;-78
2023/11/27 03:54:15;;;;;;;5.63;2.93;;;7.50;99.90;;;;;;4996211;28;20178;-78
2023/11/27 03:56:41;;;;;;;5.47;3.27;;;7.50;99.90;;;;;;5010406;28;20236;-78
2023/11/27 03:59:07;;;;;;;3.45;2.72;;;7.50;99.90;;;;;;4993879;28;21216;-79
2023/11/27 04:01:33;;;;;;;5.10;2.93;;;7.40;99.90;;;;;;4993598;28;20355;-79
2023/11/27 04:03:59;;;;;;;2.83;2.57;;;7.40;99.90;;;;;;4980597;28;20582;-79
2023/11/27 04:06:30;;;;;;;3.65;2.15;;;7.40;99.90;;;;;;4997426;28;20604;-79
2023/11/27 04:08:56;;;;;;;3.83;2.65;;;7.40;99.90;;;;;;4982491;28;20583;-79
2023/11/27 04:11:21;;;;;;;5.73;2.67;;;7.40;99.90;;;;;;4965282;28;20244;-78
2023/11/27 04:13:47;;;;;;;5.30;2.30;;;7.40;99.90;;;;;;4977473;28;20182;-79
2023/11/27 04:16:13;;;;;;;3.90;2.00;;;7.40;99.90;;;;;;4993850;28;20178;-79
2023/11/27 04:18:38;;;;;;;6.40;2.97;;;7.30;99.90;;;;;;4993475;28;20251;-79
2023/11/27 04:21:06;;;;;;;8.35;3.55;;;7.30;99.90;;;;;;5009823;28;20189;-78
2023/11/27 04:23:32;;;;;;;5.15;3.10;;;7.40;99.90;;;;;;5009889;28;20174;-79
2023/11/27 04:25:57;;;;;;;4.10;3.20;;;7.30;99.90;;;;;;5011337;28;20174;-79
2023/11/27 04:28:23;;;;;;;4.63;2.70;;;7.30;99.90;;;;;;4993281;28;20301;-79
2023/11/27 04:30:49;;;;;;;6.07;3.17;;;7.30;99.90;;;;;;4993358;28;20166;-79
2023/11/27 04:33:14;;;;;;;3.67;2.30;;;7.30;99.90;;;;;;5010820;28;20186;-78
2023/11/27 04:35:41;;;;;;;3.87;2.57;;;7.30;99.90;;;;;;5007594;28;20183;-79
2023/11/27 04:38:08;;;;;;;3.83;2.22;;;7.40;99.90;;;;;;4978386;28;20173;-79
2023/11/27 04:40:34;;;;;;;6.28;2.50;;;7.40;99.90;;;;;;5004514;28;20268;-79
2023/11/27 04:43:00;;;;;;;3.85;2.70;;;7.40;99.90;;;;;;5006491;28;20193;-78
2023/11/27 04:45:26;;;;;;;6.30;2.63;;;7.40;99.90;;;;;;4996922;28;20781;-78
2023/11/27 04:47:52;;;;;;;3.33;2.50;;;7.40;99.90;;;;;;4997285;28;20202;-79
2023/11/27 04:50:17;;;;;;;5.73;2.60;;;7.40;99.90;;;;;;4996963;28;20585;-80
2023/11/27 04:52:43;;;;;;;5.90;3.60;;;7.30;99.90;;;;;;4993938;28;20617;-83
2023/11/27 04:55:10;;;;;;;5.47;2.43;;;7.30;99.90;;;;;;4995516;28;20202;-81
2023/11/27 04:57:37;;;;;;;3.35;2.15;;;7.30;99.90;;;;;;5013647;28;20677;-81
2023/11/27 05:00:03;;;;;;;4.03;2.38;;;7.30;99.90;;;;;;5013183;28;20175;-82
2023/11/27 05:02:29;;;;;;;3.45;2.75;;;7.30;99.90;;;;;;4987988;28;20221;-83
2023/11/27 05:04:55;;;;;;;3.97;2.87;;;7.30;99.90;;;;;;4984787;28;20198;-83
2023/11/27 05:07:21;;;;;;;3.97;2.20;;;7.20;99.90;;;;;;4997621;28;20210;-83
2023/11/27 05:09:47;;;;;;;7.13;2.80;;;7.20;99.90;;;;;;5010741;28;20178;-83
2023/11/27 05:12:14;;;;;;;4.40;2.70;;;7.10;99.90;;;;;;5006780;28;20193;-83
2023/11/27 05:14:43;;;;;;;3.25;2.45;;;7.20;99.90;;;;;;5002904;28;20555;-84
2023/11/27 05:17:09;;;;;;;5.75;2.80;;;7.10;99.90;;;;;;5019862;28;20179;-83
2023/11/27 05:19:35;;;;;;;3.00;2.10;;;7.10;99.90;;;;;;5014875;28;20175;-83
2023/11/27 05:22:02;;;;;;;3.00;2.40;;;7.10;99.90;;;;;;5010856;28;20221;-82
2023/11/27 05:24:28;;;;;;;6.82;2.65;;;7.00;99.90;;;;;;4995625;28;20262;-82
2023/11/27 05:26:54;;;;;;;4.33;2.13;;;7.00;99.90;;;;;;4998579;28;20253;-82
2023/11/27 05:29:20;;;;;;;6.17;3.17;;;6.90;99.90;;;;;;5003051;28;20225;-82
2023/11/27 05:31:46;;;;;;;2.53;2.00;;;6.80;99.90;;;;;;4968688;28;20206;-82
2023/11/27 05:34:12;;;;;;;4.57;3.08;;;6.70;99.90;;;;;;4989883;28;20181;-82
2023/11/27 05:36:37;;;;;;;5.73;3.13;;;6.70;99.90;;;;;;4997879;28;20265;-81
2023/11/27 05:39:05;;;;;;;4.47;2.50;;;6.70;99.90;;;;;;5013461;28;20181;-82
2023/11/27 05:41:31;;;;;;;4.05;2.63;;;6.60;99.90;;;;;;4999360;28;20197;-82
2023/11/27 05:43:57;;;;;;;2.97;1.95;;;6.60;99.90;;;;;;4995878;28;20202;-82
2023/11/27 05:46:23;;;;;;;3.53;2.30;;;6.60;99.90;;;;;;4986924;28;20175;-82
2023/11/27 05:48:48;;;;;;;3.70;1.97;;;6.50;99.90;;;;;;5008797;28;20201;-82
2023/11/27 05:51:15;;;;;;;4.23;1.80;;;6.50;99.90;;;;;;4996215;28;20644;-81
2023/11/27 05:53:41;;;;;;;3.30;2.50;;;6.50;99.90;;;;;;5009817;28;20169;-82
2023/11/27 05:56:08;;;;;;;2.90;2.10;;;6.40;99.90;;;;;;5030181;28;20174;-81
2023/11/27 05:58:34;;;;;;;4.15;2.80;;;6.40;99.90;;;;;;4984260;28;20183;-83
2023/11/27 06:00:59;;;;;;;3.43;2.07;;;6.40;99.90;;;;;;4976805;28;20186;-81
2023/11/27 06:03:25;;;;;;;3.43;1.80;;;6.30;99.90;;;;;;4997892;28;20617;-82
2023/11/27 06:05:52;;;;;;;3.83;1.60;;;6.30;99.90;;;;;;4986244;28;20187;-82
2023/11/27 06:08:18;;;;;;;5.15;2.08;;;6.30;99.90;;;;;;4986445;28;20604;-81
2023/11/27 06:10:45;;;;;;;5.53;2.53;;;6.20;99.90;;;;;;5015012;28;20174;-81
2023/11/27 06:13:12;;;;;;;5.65;2.72;;;6.20;99.90;;;;;;4989002;28;20708;-82
2023/11/27 06:15:46;;;;;;;7.15;2.55;;;6.10;99.90;;;;;;4977570;28;20578;-82
2023/11/27 06:18:13;;;;;;;3.22;2.50;;;6.10;99.90;;;;;;5009180;28;20681;-82
2023/11/27 06:20:40;;;;;;;4.60;3.00;;;6.00;99.90;;;;;;4996180;28;20236;-81
2023/11/27 06:23:05;;;;;;;5.05;2.65;;;5.90;99.90;;;;;;5003742;28;20201;-81
2023/11/27 06:25:34;;;;;;;3.50;2.03;;;5.90;99.90;;;;;;5003673;28;20633;-81
2023/11/27 06:28:01;;;;;;;8.85;3.58;;;5.80;99.90;;;;;;5003867;28;20641;-81
2023/11/27 06:30:28;;;;;;;4.40;2.75;;;5.70;99.90;;;;;;4995860;28;20189;-81
2023/11/27 06:32:54;;;;;;;5.35;2.85;;;5.70;99.90;;;;;;4997877;28;20206;-82
2023/11/27 06:35:19;;;;;;;8.00;3.30;;;5.70;99.90;;;;;;5013373;28;20181;-82
2023/11/27 06:37:45;;;;;;;4.20;2.40;;;5.60;99.90;;;;;;4963448;28;20680;-82
2023/11/27 06:40:16;;;;;;;3.83;2.90;;;5.60;99.90;;;;;;4995857;28;20567;-82
2023/11/27 06:42:43;;;;;;;2.65;1.85;;;5.50;99.90;;;;;;4995753;28;20229;-83
2023/11/27 06:45:09;;;;;;;4.18;3.10;;;5.50;99.90;;;;;;4995874;28;20201;-83
2023/11/27 06:47:35;;;;;;;7.90;3.65;;;5.50;99.90;;;;;;4995237;28;20214;-82
2023/11/27 06:50:02;;;;;;;4.38;3.13;;;5.60;99.90;;;;;;4995537;28;20218;-82
2023/11/27 06:52:27;;;;;;;6.30;3.90;;;5.60;99.90;;;;;;4986871;28;20221;-82
2023/11/27 06:54:53;;;;;;;7.47;4.43;;;5.50;99.90;;;;;;5011831;28;20209;-82
2023/11/27 06:57:19;;;;;;;4.13;2.93;;;5.50;99.90;;;;;;5011591;28;20652;-82
2023/11/27 06:59:45;;;;;;;4.57;3.30;;;5.50;99.90;;;;;;4987315;28;20660;-82
2023/11/27 07:02:10;;;;;;;3.67;2.87;;;5.50;99.90;;;;;;4990869;28;21268;-82
2023/11/27 07:04:39;;;;;;;8.60;3.87;;;5.50;99.90;;;;;;4995342;28;20590;-79
2023/11/27 07:07:05;;;;;;;10.52;4.13;;;5.50;99.90;;;;;;5011459;28;20237;-79
2023/11/27 07:09:31;;;;;;;6.10;2.97;;;5.50;99.90;;;;;;5016948;28;20637;-79
2023/11/27 07:11:56;;;;;;;6.97;4.33;;;5.50;99.90;;;;;;5018477;28;20617;-77
2023/11/27 07:14:22;;;;;;;5.63;4.07;;;5.50;99.90;;;;;;5012194;28;20186;-78
2023/11/27 07:16:48;;;;;;;4.47;2.80;;;5.50;99.90;;;;;;4995144;28;20183;-78
2023/11/27 07:19:14;;;;;;;8.90;3.70;;;5.50;99.90;;;;;;4994760;28;20190;-78
2023/11/27 07:21:39;;;;;;;6.37;2.70;;;5.50;99.90;;;;;;4986095;28;20212;-79
2023/11/27 07:24:06;;;;;;;6.73;3.13;;;5.60;99.90;;;;;;4994625;28;20830;-78
2023/11/27 07:26:32;;;;;;;6.68;3.45;;;5.50;99.90;;;;;;4995510;28;20181;-79
2023/11/27 07:28:57;;;;;;;5.53;2.67;;;5.50;99.90;;;;;;5010823;28;20255;-78
2023/11/27 07:31:27;;;;;;;4.63;2.43;;;5.50;99.90;;;;;;5011305;28;22043;-79
2023/11/27 07:33:56;;;;;;;4.60;2.67;;;5.40;99.90;;;;;;5011017;28;20595;-79
2023/11/27 07:36:22;;;;;;;4.43;2.75;;;5.40;99.90;;;;;;5010470;28;20201;-78
2023/11/27 07:38:48;;;;;;;3.88;2.47;;;5.40;99.90;;;;;;4992750;28;20182;-78
2023/11/27 07:41:15;;;;;;;7.35;2.47;;;5.40;99.90;;;;;;4994186;28;20178;-78
2023/11/27 07:43:40;;;;;;;5.40;2.70;;;5.40;99.90;;;;;;4994234;28;20201;-79
2023/11/27 07:46:11;;;;;;;5.67;2.80;;;5.30;99.90;;;;;;5014508;28;20174;-80
2023/11/27 07:48:39;;;;;;;6.13;3.33;;;5.20;99.90;;;;;;4993943;28;20225;-80
2023/11/27 07:51:06;;;;;;;5.85;2.92;;;5.20;99.90;;;;;;4977785;28;20186;-80
2023/11/27 07:53:32;;;;;;;5.38;3.10;;;5.30;99.90;;;;;;5002072;28;20174;-80
2023/11/27 07:55:59;;;;;;;5.35;3.17;;;5.30;99.90;;;;;;4977889;28;20249;-80
2023/11/27 07:58:25;;;;;;;4.80;3.35;;;5.30;99.90;;;;;;5010820;28;20182;-79
2023/11/27 08:00:51;;;;;;;5.00;3.20;;;5.30;99.90;;;;;;5000916;28;20209;-80
2023/11/27 08:03:17;;;;;;;7.27;3.70;;;5.20;99.90;;;;;;4985286;28;20659;-79
2023/11/27 08:05:43;;;;;;;6.93;3.43;;;5.20;99.90;;;;;;5011509;28;20269;-78
2023/11/27 08:08:09;;;;;;;3.93;2.33;;;5.20;99.90;;;;;;5002828;28;20214;-78
2023/11/27 08:10:37;;;;;;;5.45;3.20;;;5.20;99.90;;;;;;4997407;28;20604;-77
2023/11/27 08:13:06;;;;;;;3.03;2.72;;;5.20;99.90;;;;;;4993333;28;20230;-78
2023/11/27 08:15:32;;;;;;;4.82;3.20;;;5.20;99.90;;;;;;4994192;28;20282;-77
2023/11/27 08:18:02;;;;;;;6.63;3.70;;;5.20;99.90;;;;;;5003270;28;20202;-78
2023/11/27 08:20:28;;;;;;;6.07;2.88;;;5.20;99.90;;;;;;5009938;28;20260;-78
2023/11/27 08:23:00;;;;;;;6.10;3.70;;;5.30;99.90;;;;;;5015412;28;20189;-78
2023/11/27 08:25:27;;;;;;;3.50;2.85;;;5.20;99.90;;;;;;5014893;28;20689;-77
2023/11/27 08:27:53;;;;;;;7.40;3.97;;;5.20;99.90;;;;;;5017453;28;20632;-78
2023/11/27 08:30:20;;;;;;;5.82;2.55;;;5.20;99.90;;;;;;4998611;28;20589;-77
2023/11/27 08:32:46;;;;;;;3.88;3.28;;;5.20;99.90;;;;;;5013179;28;20209;-77
2023/11/27 08:35:12;;;;;;;5.38;2.95;;;5.10;99.90;;;;;;4998160;28;20174;-78
2023/11/27 08:37:39;;;;;;;4.03;2.97;;;5.20;99.90;;;;;;5006350;28;20184;-76
2023/11/27 08:40:12;;;;;;;3.35;2.35;;;5.20;99.90;;;;;;5008819;28;20555;-77
2023/11/27 08:42:39;;;;;;;3.25;2.63;;;5.20;99.90;;;;;;5005221;28;20281;-78
2023/11/27 08:45:10;;;;;;;4.57;1.95;;;5.20;99.90;;;;;;5030214;28;20243;-78
2023/11/27 08:47:40;;;;;;;8.90;3.63;;;5.20;99.90;;;;;;4998552;28;20233;-77
2023/11/27 08:50:07;;;;;;;4.38;2.95;;;5.20;99.90;;;;;;5009921;28;20175;-77
2023/11/27 08:52:36;;;;;;;3.83;2.25;;;5.20;99.90;;;;;;4991993;28;20213;-77
2023/11/27 08:55:05;;;;;;;5.57;2.70;;;5.10;99.90;;;;;;5001380;28;20219;-77
2023/11/27 08:57:32;;;;;;;2.70;2.00;;;5.10;99.90;;;;;;4969086;28;20620;-77
2023/11/27 08:59:58;;;;;;;5.03;2.50;;;5.10;99.90;;;;;;4997561;28;20179;-78
2023/11/27 09:02:24;;;;;;;7.33;2.40;;;5.10;99.90;;;;;;4995614;28;20729;-78
2023/11/27 09:04:49;;;;;;;3.23;2.83;;;5.10;99.90;;;;;;5003110;28;20178;-78
2023/11/27 09:07:15;;;;;;;3.20;2.47;;;5.10;99.90;;;;;;4977648;28;20674;-78
2023/11/27 09:09:42;;;;;;;3.88;2.10;;;5.20;99.90;;;;;;5018264;28;20261;-78
2023/11/27 09:12:07;;;;;;;2.85;2.50;;;5.20;99.90;;;;;;4985052;28;20201;-78
2023/11/27 09:14:33;;;;;;;4.77;2.50;;;5.20;99.90;;;;;;4986926;28;20628;-78
2023/11/27 09:16:59;;;;;;;5.33;2.50;;;5.20;99.90;;;;;;4999752;28;20179;-78
2023/11/27 09:19:26;;;;;;;4.70;2.40;;;5.20;99.90;;;;;;4984955;28;20185;-78
2023/11/27 09:21:53;;;;;;;2.58;1.70;;;5.20;99.90;;;;;;4985009;28;20220;-78
2023/11/27 09:24:19;;;;;;;6.15;1.98;;;5.20;99.90;;;;;;4994310;28;20178;-78
2023/11/27 09:26:45;;;;;;;3.40;1.77;;;5.20;99.90;;;;;;4973169;28;20529;-77
2023/11/27 09:29:10;;;;;;;2.37;1.53;;;5.30;99.90;;;;;;4990451;28;20179;-78
2023/11/27 09:31:36;;;;;;;2.20;1.70;;;5.30;99.90;;;;;;4989278;28;20555;-78
2023/11/27 09:34:02;;;;;;;3.50;1.80;;;5.30;99.90;;;;;;5003438;28;20259;-78
2023/11/27 09:36:28;;;;;;;4.47;1.75;;;5.30;99.90;;;;;;4997717;28;20260;-77
2023/11/27 09:38:54;;;;;;;2.83;1.27;;;5.30;99.90;;;;;;5016553;28;20213;-78
2023/11/27 09:41:20;;;;;;;2.58;1.40;;;5.30;99.90;;;;;;5005025;28;20174;-78
2023/11/27 09:43:46;;;;;;;2.13;1.83;;;5.40;99.90;;;;;;4996853;28;20178;-77
2023/11/27 09:46:17;;;;;;;2.27;1.53;;;5.30;99.90;;;;;;4990222;28;20601;-77
2023/11/27 09:48:44;;;;;;;1.70;1.13;;;5.40;99.90;;;;;;4980805;28;20704;-78
2023/11/27 09:51:12;;;;;;;1.95;1.45;;;5.40;99.90;;;;;;4964488;28;20170;-79
2023/11/27 09:53:50;;;;;;;3.35;1.10;;;5.40;99.90;;;;;;5014305;28;20189;-79
2023/11/27 09:56:17;;;;;;;1.80;1.00;;;5.40;99.90;;;;;;5017441;28;20204;-79
2023/11/27 09:58:44;;;;;;;2.25;1.10;;;5.50;99.90;;;;;;4989447;28;20212;-79
2023/11/27 10:01:13;;;;;;;4.05;1.70;;;5.50;99.90;;;;;;5012345;28;20184;-79
2023/11/27 10:03:41;;;;;;;1.55;1.10;;;5.50;99.90;;;;;;5005923;28;20186;-79
2023/11/27 10:06:07;;;;;;;4.72;1.33;;;5.50;99.90;;;;;;4996350;28;20210;-79
2023/11/27 10:08:33;;;;;;;1.80;1.00;;;5.50;99.90;;;;;;5012608;28;20205;-79
2023/11/27 10:10:59;;;;;;;4.38;1.02;;;5.60;99.90;;;;;;5006905;28;20237;-77
2023/11/27 10:13:34;;;;;;;2.47;1.30;;;5.60;99.90;;;;;;4988130;28;20203;-80
2023/11/27 10:16:09;;;;;;;2.08;1.10;;;5.50;99.90;;;;;;5015685;28;20703;-80
2023/11/27 10:18:35;;;;;;;1.58;1.05;;;5.50;99.90;;;;;;4979675;28;20188;-80
2023/11/27 10:21:09;;;;;;;1.38;0.85;;;5.60;99.90;;;;;;4995829;28;20236;-81
2023/11/27 10:23:35;;;;;;;1.38;0.80;;;5.50;99.90;;;;;;4988530;28;20240;-80
2023/11/27 10:26:03;;;;;;;3.15;0.90;;;5.50;99.90;;;;;;4996020;28;20186;-81
2023/11/27 10:28:43;;;;;;;2.72;1.10;;;5.50;99.90;;;;;;5013264;28;20241;-81
2023/11/27 10:31:08;;;;;;;1.63;1.00;;;5.50;99.90;;;;;;5004183;28;20325;-80
2023/11/27 10:33:35;;;;;;;1.20;0.75;;;5.40;99.90;;;;;;4979239;28;20358;-80
2023/11/27 10:36:05;;;;;;;2.15;1.17;;;5.40;99.90;;;;;;4994754;28;20202;-79
2023/11/27 10:38:33;;;;;;;1.63;0.90;;;5.40;99.90;;;;;;4995399;28;20660;-79
2023/11/27 10:41:02;;;;;;;3.08;1.77;;;5.40;99.90;;;;;;4984679;28;20170;-79
2023/11/27 10:43:28;;;;;;;2.10;1.02;;;5.40;99.90;;;;;;5011893;28;20195;-79
2023/11/27 10:45:55;;;;;;;1.50;0.90;;;5.40;99.90;;;;;;4972097;28;20173;-80
2023/11/27 10:48:22;;;;;;;1.40;0.90;;;5.40;99.90;;;;;;4988049;28;20260;-80
2023/11/27 10:50:50;;;;;;;1.42;0.88;;;5.40;99.90;;;;;;4996452;28;20213;-79
2023/11/27 10:53:19;;;;;;;1.67;0.73;;;5.40;99.90;;;;;;5004970;28;20209;-80
2023/11/27 10:55:47;;;;;;;1.65;0.80;;;5.40;99.90;;;;;;4995484;28;20190;-80
2023/11/27 10:58:14;;;;;;;1.80;0.80;;;5.40;99.90;;;;;;5001057;28;20185;-80
2023/11/27 11:00:46;;;;;;;1.67;0.77;;;5.40;99.90;;;;;;4996821;28;20210;-80
2023/11/27 11:03:23;;;;;;;1.50;0.80;;;5.40;99.90;;;;;;4986757;28;20566;-81
2023/11/27 11:05:50;;;;;;;2.33;1.05;;;5.40;99.90;;;;;;4982034;28;20199;-81
2023/11/27 11:08:26;;;;;;;1.42;0.80;;;5.40;99.90;;;;;;4976916;28;20218;-81
2023/11/27 11:10:57;;;;;;;1.30;0.90;;;5.40;99.90;;;;;;5003049;28;20189;-81
2023/11/27 11:13:25;;;;;;;1.30;0.73;;;5.50;99.90;;;;;;4995486;28;20248;-80
2023/11/27 11:16:00;;;;;;;3.75;0.90;;;5.50;99.90;;;;;;5010767;28;20174;-81
2023/11/27 11:19:05;;;;;;;1.50;0.82;;;5.50;99.90;;;;;;5012245;28;20284;-80
2023/11/27 11:21:42;;;;;;;1.45;0.85;;;5.50;99.90;;;;;;4973733;28;20293;-80
2023/11/27 11:24:44;;;;;;;1.90;1.00;;;5.50;99.90;;;;;;5004945;28;20189;-80
2023/11/27 11:27:34;;;;;;;1.50;0.90;;;5.50;99.90;;;;;;5008451;28;20249;-80
2023/11/27 11:30:04;;;;;;;1.50;0.90;;;5.50;99.90;;;;;;5004647;28;20258;-79
2023/11/27 11:32:30;;;;;;;1.20;0.80;;;5.50;99.90;;;;;;4995204;28;20260;-80
2023/11/27 11:34:59;;;;;;;1.10;0.60;;;5.50;99.90;;;;;;5015884;28;20632;-79
2023/11/27 11:37:28;;;;;;;5.25;0.80;;;5.50;99.90;;;;;;5015660;28;20281;-79
2023/11/27 11:39:56;;;;;;;1.40;0.90;;;5.50;99.90;;;;;;5002932;28;20205;-76
2023/11/27 11:42:29;;;;;;;3.30;1.45;;;5.50;99.90;;;;;;4998439;28;20241;-76
2023/11/27 11:45:19;;;;;;;2.05;1.00;;;5.50;99.90;;;;;;5008266;28;20548;-76
2023/11/27 11:48:14;;;;;;;2.15;1.27;;;5.50;99.90;;;;;;4991115;28;20797;-76
2023/11/27 11:50:41;;;;;;;2.53;1.02;;;5.50;99.90;;;;;;5015896;28;20187;-75
2023/11/27 11:53:21;;;;;;;7.85;3.47;;;5.50;99.90;;;;;;5011178;28;20578;-76
2023/11/27 11:55:50;;;;;;;7.25;4.53;;;5.50;99.90;;;;;;4993930;28;20602;-77
2023/11/27 11:58:19;;;;;;;2.40;1.40;;;5.50;99.90;;;;;;4989899;28;20625;-76
2023/11/27 12:00:49;;;;;;;2.67;1.20;;;5.50;99.90;;;;;;4993978;28;20182;-76
2023/11/27 12:03:15;;;;;;;1.55;0.80;;;5.50;99.90;;;;;;4993868;28;20202;-76
2023/11/27 12:05:53;;;;;;;2.35;1.00;;;5.60;99.90;;;;;;4995703;28;20185;-78
2023/11/27 12:08:28;;;;;;;2.53;0.75;;;5.60;99.90;;;;;;4994737;28;20197;-75
2023/11/27 12:10:56;;;;;;;1.48;0.80;;;5.60;99.90;;;;;;4994011;28;20257;-76
2023/11/27 12:13:24;;;;;;;2.15;0.80;;;5.60;99.90;;;;;;5010021;28;20564;-77
2023/11/27 12:15:57;;;;;;;3.70;0.95;;;5.60;99.90;;;;;;5009696;28;20175;-76
2023/11/27 12:18:30;;;;;;;2.22;1.00;;;5.60;99.90;;;;;;5000258;28;20201;-77
2023/11/27 12:20:56;;;;;;;1.73;0.98;;;5.70;99.90;;;;;;4993269;28;20636;-76
2023/11/27 12:23:22;;;;;;;1.60;0.80;;;5.70;99.90;;;;;;5009659;28;20194;-77
2023/11/27 12:25:48;;;;;;;4.55;1.00;;;5.70;99.90;;;;;;4985385;28;20174;-77
2023/11/27 12:28:14;;;;;;;7.63;1.10;;;5.60;99.90;;;;;;4993338;28;20206;-76
2023/11/27 12:30:40;;;;;;;1.47;0.70;;;5.60;99.90;;;;;;4993448;28;20635;-76
2023/11/27 12:33:08;;;;;;;1.70;0.80;;;5.70;99.90;;;;;;5007114;28;20692;-76
2023/11/27 12:35:34;;;;;;;1.80;0.88;;;5.60;99.90;;;;;;5011017;28;20269;-76
2023/11/27 12:38:05;;;;;;;1.40;0.80;;;5.60;99.90;;;;;;5009405;28;20209;-76
2023/11/27 12:40:34;;;;;;;3.55;1.48;;;5.60;99.90;;;;;;4993484;28;20182;-77
2023/11/27 12:43:09;;;;;;;1.63;0.80;;;5.60;99.90;;;;;;4980108;28;20198;-76
2023/11/27 12:45:36;;;;;;;4.53;1.23;;;5.60;99.90;;;;;;5001338;28;20632;-76
2023/11/27 12:48:06;;;;;;;1.88;1.20;;;5.70;99.90;;;;;;4999767;28;20245;-76
2023/11/27 12:50:39;;;;;;;3.38;1.23;;;5.70;99.90;;;;;;5009569;28;20213;-76
2023/11/27 12:53:09;;;;;;;5.32;1.80;;;5.60;99.90;;;;;;5009062;28;20202;-77
2023/11/27 12:55:38;;;;;;;1.60;1.10;;;5.70;99.90;;;;;;4993178;28;20186;-76
2023/11/27 12:58:05;;;;;;;4.80;1.05;;;5.70;99.90;;;;;;5010386;28;20186;-76